createdAt,value
2022-08-02T00:01:14.500Z,22.2
2022-08-02T00:06:51.118Z,22.1
2022-08-02T00:12:25.855Z,22.1
2022-08-02T00:18:01.035Z,22
2022-08-02T00:23:44.251Z,22
2022-08-02T00:30:06.307Z,21.9
2022-08-02T00:35:41.016Z,21.9
2022-08-02T00:41:16.049Z,21.8
2022-08-02T00:46:50.933Z,21.7
2022-08-02T00:52:25.677Z,21.7
2022-08-02T00:58:00.564Z,21.6
2022-08-02T01:03:36.638Z,21.6
2022-08-02T01:09:11.313Z,21.5
2022-08-02T01:14:46.193Z,21.5
2022-08-02T01:20:21.007Z,21.4
2022-08-02T01:25:55.739Z,21.4
2022-08-02T01:31:31.550Z,21.4
2022-08-02T01:37:07.290Z,21.3
2022-08-02T01:42:42.401Z,21.3
2022-08-02T01:48:17.118Z,21.2
2022-08-02T01:53:51.885Z,21.2
2022-08-02T01:59:26.764Z,21.1
2022-08-02T02:05:01.589Z,21.1
2022-08-02T02:10:37.568Z,21
2022-08-02T02:16:12.856Z,21
2022-08-02T02:21:47.667Z,20.9
2022-08-02T02:27:23.125Z,20.9
2022-08-02T02:32:58.080Z,20.9
2022-08-02T02:38:32.837Z,20.9
2022-08-02T02:44:08.968Z,21
2022-08-02T02:49:44.010Z,21.1
2022-08-02T02:55:18.671Z,21.1
2022-08-02T03:00:53.873Z,21.1
2022-08-02T03:06:29.917Z,21.1
2022-08-02T03:12:04.771Z,21.1
2022-08-02T03:17:39.800Z,21.1
2022-08-02T03:23:15.056Z,21.2
2022-08-02T03:28:49.962Z,21.1
2022-08-02T03:34:24.693Z,21.2
2022-08-02T03:39:59.246Z,21.2
2022-08-02T03:45:34.036Z,21.2
2022-08-02T03:51:10.278Z,21.2
2022-08-02T03:56:45.075Z,21.2
2022-08-02T04:02:19.984Z,21.2
2022-08-02T04:08:02.782Z,21.2
2022-08-02T04:14:14.088Z,21.2
2022-08-02T04:19:49.400Z,21.2
2022-08-02T04:25:34.512Z,21.2
2022-08-02T04:31:17.176Z,21.2
2022-08-02T04:36:52.093Z,20.6
2022-08-02T04:42:26.838Z,20.2
2022-08-02T04:48:04.759Z,20.1
2022-08-02T04:53:41.511Z,19.9
2022-08-02T04:59:16.286Z,20
2022-08-02T05:04:51.118Z,19.9
2022-08-02T05:10:34.605Z,20
2022-08-02T05:16:09.505Z,20
2022-08-02T05:21:44.544Z,20
2022-08-02T05:27:21.711Z,20.1
2022-08-02T05:32:57.137Z,20.2
2022-08-02T05:38:31.844Z,20.2
2022-08-02T05:44:13.416Z,20.3
2022-08-02T05:49:48.298Z,20.5
2022-08-02T05:55:23.376Z,20.4
2022-08-02T06:00:58.535Z,20.6
2022-08-02T06:06:33.894Z,20.8
2022-08-02T06:12:08.691Z,20.8
2022-08-02T06:18:05.330Z,20.9
2022-08-02T06:23:37.822Z,20.9
2022-08-02T06:29:35.644Z,21.2
2022-08-02T06:35:15.151Z,21.1
2022-08-02T06:40:49.710Z,21.1
2022-08-02T06:46:34.201Z,21.1
2022-08-02T06:52:48.983Z,21
2022-08-02T06:58:24.985Z,21.1
2022-08-02T07:03:59.776Z,21.1
2022-08-02T07:09:36.318Z,21.2
2022-08-02T07:15:11.420Z,21.3
2022-08-02T07:20:46.644Z,21.4
2022-08-02T07:26:21.493Z,21.5
2022-08-02T07:31:56.393Z,21.5
2022-08-02T07:37:36.327Z,21.6
2022-08-02T07:43:40.183Z,21.7
2022-08-02T07:49:15.195Z,21.7
2022-08-02T07:54:55.694Z,21.8
2022-08-02T08:00:31.410Z,21.9
2022-08-02T08:06:07.244Z,21.9
2022-08-02T08:11:50.946Z,22
2022-08-02T08:17:48.417Z,22
2022-08-02T08:23:21.265Z,22
2022-08-02T08:28:56.215Z,22.1
2022-08-02T08:34:32.334Z,22.1
2022-08-02T08:40:07.438Z,22.1
2022-08-02T08:45:42.660Z,22.1
2022-08-02T08:51:18.751Z,22.2
2022-08-02T08:56:58.383Z,22.2
2022-08-02T09:02:33.185Z,22.2
2022-08-02T09:08:11.252Z,22.3
2022-08-02T09:13:51.880Z,22.3
2022-08-02T09:19:48.565Z,22.4
2022-08-02T09:25:22.317Z,22.5
2022-08-02T09:30:57.275Z,22.5
2022-08-02T09:36:32.180Z,22.6
2022-08-02T09:42:11.835Z,22.7
2022-08-02T09:47:50.790Z,22.8
2022-08-02T09:53:26.208Z,22.8
2022-08-02T09:59:01.952Z,22.9
2022-08-02T10:04:44.569Z,23
2022-08-02T10:10:37.249Z,23.1
2022-08-02T10:16:33.989Z,23.2
2022-08-02T10:22:06.433Z,23.2
2022-08-02T10:28:04.044Z,23.3
2022-08-02T10:33:42.224Z,23.4
2022-08-02T10:39:24.353Z,23.5
2022-08-02T10:44:59.108Z,23.6
2022-08-02T10:50:34.283Z,23.7
2022-08-02T10:56:09.780Z,23.8
2022-08-02T11:01:45.063Z,23.8
2022-08-02T11:07:21.871Z,23.9
2022-08-02T11:12:56.861Z,24
2022-08-02T11:18:53.519Z,24.2
2022-08-02T11:24:26.098Z,24.3
2022-08-02T11:30:02.158Z,24.4
2022-08-02T11:35:36.997Z,24.5
2022-08-02T11:41:11.930Z,24.6
2022-08-02T11:47:21.984Z,24.7
2022-08-02T11:52:57.084Z,24.8
2022-08-02T11:58:32.304Z,25
2022-08-02T12:04:07.153Z,25.1
2022-08-02T12:09:42.444Z,25.2
2022-08-02T12:15:19.046Z,25.4
2022-08-02T12:20:53.861Z,25.5
2022-08-02T12:26:28.714Z,25.7
2022-08-02T12:32:03.877Z,25.8
2022-08-02T12:37:39.921Z,25.9
2022-08-02T12:43:14.835Z,26.1
2022-08-02T12:49:08.645Z,26.4
2022-08-02T12:54:55.194Z,26.7
2022-08-02T13:00:30.970Z,27.1
2022-08-02T13:06:17.349Z,27.4
2022-08-02T13:12:21.902Z,27.7
2022-08-02T13:17:56.909Z,28
2022-08-02T13:23:53.986Z,28.3
2022-08-02T13:29:30.483Z,28.6
2022-08-02T13:35:06.489Z,28.9
2022-08-02T13:41:03.740Z,29.2
2022-08-02T13:46:45.195Z,29.5
2022-08-02T13:52:21.468Z,29.8
2022-08-02T13:57:56.385Z,30
2022-08-02T14:04:06.293Z,30.3
2022-08-02T14:09:45.246Z,30.6
2022-08-02T14:15:20.268Z,30.8
2022-08-02T14:20:55.370Z,31.1
2022-08-02T14:26:30.303Z,31.3
2022-08-02T14:32:06.139Z,31.5
2022-08-02T14:37:41.150Z,31.8
2022-08-02T14:43:19.466Z,32
2022-08-02T14:48:54.874Z,32.2
2022-08-02T14:54:31.145Z,32.5
2022-08-02T15:00:06.708Z,32.7
2022-08-02T15:05:42.444Z,32.8
2022-08-02T15:11:17.668Z,33
2022-08-02T15:16:57.439Z,33.2
2022-08-02T15:22:34.417Z,33.4
2022-08-02T15:28:11.569Z,33.6
2022-08-02T15:33:46.543Z,33.7
2022-08-02T15:39:21.443Z,33.9
2022-08-02T15:44:56.270Z,33.8
2022-08-02T15:50:31.193Z,33.7
2022-08-02T15:56:09.809Z,33.7
2022-08-02T16:01:58.019Z,33.9
2022-08-02T16:07:37.318Z,34.2
2022-08-02T16:13:16.364Z,34.4
2022-08-02T16:18:51.524Z,34.6
2022-08-02T16:24:26.415Z,34.8
2022-08-02T16:30:01.537Z,34.9
2022-08-02T16:35:36.675Z,35
2022-08-02T16:41:21.989Z,35.2
2022-08-02T16:46:56.946Z,35.3
2022-08-02T16:52:51.873Z,35.3
2022-08-02T16:58:27.697Z,35.4
2022-08-02T17:04:02.639Z,35.4
2022-08-02T17:10:02.736Z,35.2
2022-08-02T17:16:00.921Z,34.2
2022-08-02T17:22:01.514Z,33.4
2022-08-02T17:27:36.850Z,32.8
2022-08-02T17:33:13.896Z,32.4
2022-08-02T17:38:50.100Z,32
2022-08-02T17:44:36.817Z,31.7
2022-08-02T17:50:14.413Z,31.4
2022-08-02T17:55:51.266Z,31.2
2022-08-02T18:01:26.245Z,30.9
2022-08-02T18:07:07.385Z,30.7
2022-08-02T18:12:52.622Z,30.5
2022-08-02T18:18:31.216Z,30.3
2022-08-02T18:24:10.433Z,30.1
2022-08-02T18:29:46.463Z,29.9
2022-08-02T18:35:39.734Z,29.7
2022-08-02T18:41:14.897Z,29.6
2022-08-02T18:46:53.060Z,29.4
2022-08-02T18:52:31.324Z,29.3
2022-08-02T18:58:17.719Z,29.1
2022-08-02T19:03:56.115Z,29
2022-08-02T19:09:33.135Z,28.8
2022-08-02T19:15:08.139Z,28.6
2022-08-02T19:20:53.436Z,28.4
2022-08-02T23:04:48.903Z,24
2022-08-02T23:10:23.321Z,23.9
2022-08-02T23:15:58.035Z,23.8
2022-08-02T23:21:46.404Z,23.8
2022-08-02T23:27:38.390Z,23.7
2022-08-02T23:33:25.373Z,23.6
2022-08-02T23:39:00.420Z,23.6
2022-08-02T23:44:35.180Z,23.5
2022-08-02T23:50:11.082Z,23.5
2022-08-02T23:55:45.733Z,23.5
